Time;durP1;ratioP1;P1;durP2;ratioP2;P2;SDS_P1;SDS_P2;PMS_P1;PMS_P2;Temp;Humidity;BMP_temperature;BMP_pressure;BME280_temperature;BME280_humidity;BME280_pressure;Samples;Min_cycle;Max_cycle;Signal;HPM_P1;HPM_P2
2021/07/17 00:01:43;;;;;;;2.3;1.8;;;;;;;;;;;;;
2021/07/17 00:04:08;;;;;;;3.4;1.8;;;;;;;;;;;;;
2021/07/17 00:06:34;;;;;;;3.2;1.7;;;;;;;;;;;;;
2021/07/17 00:08:59;;;;;;;2.4;1.8;;;;;;;;;;;;;
2021/07/17 00:11:25;;;;;;;2.3;1.9;;;;;;;;;;;;;
2021/07/17 00:13:50;;;;;;;2.6;1.6;;;;;;;;;;;;;
2021/07/17 00:16:16;;;;;;;2;1.8;;;;;;;;;;;;;
2021/07/17 00:18:41;;;;;;;3.2;2.2;;;;;;;;;;;;;
2021/07/17 00:21:07;;;;;;;3;1.8;;;;;;;;;;;;;
2021/07/17 00:23:32;;;;;;;3.3;2;;;;;;;;;;;;;
2021/07/17 00:25:59;;;;;;;3.8;1.8;;;;;;;;;;;;;
2021/07/17 00:28:23;;;;;;;4.2;1.8;;;;;;;;;;;;;
2021/07/17 00:30:50;;;;;;;2.8;1.9;;;;;;;;;;;;;
2021/07/17 00:33:15;;;;;;;3.9;2;;;;;;;;;;;;;
2021/07/17 00:35:41;;;;;;;2.5;1.8;;;;;;;;;;;;;
2021/07/17 00:38:06;;;;;;;2.3;2;;;;;;;;;;;;;
2021/07/17 00:40:33;;;;;;;2.7;1.9;;;;;;;;;;;;;
2021/07/17 00:42:58;;;;;;;2;1.8;;;;;;;;;;;;;
2021/07/17 00:45:23;;;;;;;1.8;1.7;;;;;;;;;;;;;
2021/07/17 00:47:50;;;;;;;2.1;1.9;;;;;;;;;;;;;
2021/07/17 00:50:15;;;;;;;2.3;2.1;;;;;;;;;;;;;
2021/07/17 00:52:40;;;;;;;2.1;1.9;;;;;;;;;;;;;
2021/07/17 00:55:06;;;;;;;2.6;1.9;;;;;;;;;;;;;
2021/07/17 00:57:31;;;;;;;2.3;2;;;;;;;;;;;;;
2021/07/17 00:59:57;;;;;;;2.2;1.9;;;;;;;;;;;;;
2021/07/17 01:02:22;;;;;;;2.7;2.1;;;;;;;;;;;;;
2021/07/17 01:04:47;;;;;;;2.5;2.2;;;;;;;;;;;;;
2021/07/17 01:07:12;;;;;;;3.8;2.7;;;;;;;;;;;;;
2021/07/17 01:09:39;;;;;;;2.9;2.2;;;;;;;;;;;;;
2021/07/17 01:12:04;;;;;;;4;2.1;;;;;;;;;;;;;
2021/07/17 01:14:31;;;;;;;3.8;2.3;;;;;;;;;;;;;
2021/07/17 01:16:56;;;;;;;2;1.7;;;;;;;;;;;;;
2021/07/17 01:19:21;;;;;;;2;1.8;;;;;;;;;;;;;
2021/07/17 01:21:46;;;;;;;3.5;1.9;;;;;;;;;;;;;
2021/07/17 01:24:12;;;;;;;3.4;2.1;;;;;;;;;;;;;
2021/07/17 01:26:37;;;;;;;2.1;1.9;;;;;;;;;;;;;
2021/07/17 01:29:05;;;;;;;12.5;2.7;;;;;;;;;;;;;
2021/07/17 01:31:30;;;;;;;2.2;2;;;;;;;;;;;;;
2021/07/17 01:33:55;;;;;;;2.2;1.9;;;;;;;;;;;;;
2021/07/17 01:36:20;;;;;;;2.3;2.1;;;;;;;;;;;;;
2021/07/17 01:38:47;;;;;;;2.9;2.1;;;;;;;;;;;;;
2021/07/17 01:41:14;;;;;;;3.1;2.2;;;;;;;;;;;;;
2021/07/17 01:43:38;;;;;;;2.9;1.9;;;;;;;;;;;;;
2021/07/17 01:46:03;;;;;;;4.9;2.2;;;;;;;;;;;;;
2021/07/17 01:48:29;;;;;;;2.5;2.1;;;;;;;;;;;;;
2021/07/17 01:50:54;;;;;;;2.8;2.1;;;;;;;;;;;;;
2021/07/17 01:53:20;;;;;;;2.4;2;;;;;;;;;;;;;
2021/07/17 01:55:45;;;;;;;2.2;2;;;;;;;;;;;;;
2021/07/17 01:58:12;;;;;;;2;1.8;;;;;;;;;;;;;
2021/07/17 02:00:38;;;;;;;2.8;1.8;;;;;;;;;;;;;
2021/07/17 02:03:03;;;;;;;2.3;2.1;;;;;;;;;;;;;
2021/07/17 02:05:28;;;;;;;2.2;2;;;;;;;;;;;;;
2021/07/17 02:07:55;;;;;;;2.4;2.2;;;;;;;;;;;;;
2021/07/17 02:10:20;;;;;;;2.3;1.9;;;;;;;;;;;;;
2021/07/17 02:12:45;;;;;;;2.9;2;;;;;;;;;;;;;
2021/07/17 02:15:10;;;;;;;3.6;2.2;;;;;;;;;;;;;
2021/07/17 02:17:37;;;;;;;3.2;2.1;;;;;;;;;;;;;
2021/07/17 02:20:02;;;;;;;1.8;1.7;;;;;;;;;;;;;
2021/07/17 02:22:28;;;;;;;2.2;1.9;;;;;;;;;;;;;
2021/07/17 02:24:54;;;;;;;2.1;1.7;;;;;;;;;;;;;
2021/07/17 02:27:20;;;;;;;2.2;1.8;;;;;;;;;;;;;
2021/07/17 02:29:45;;;;;;;2;1.6;;;;;;;;;;;;;
2021/07/17 02:32:11;;;;;;;1.8;1.7;;;;;;;;;;;;;
2021/07/17 02:34:36;;;;;;;2.1;1.9;;;;;;;;;;;;;
2021/07/17 02:37:03;;;;;;;2.3;2.1;;;;;;;;;;;;;
2021/07/17 02:39:28;;;;;;;2.8;2.1;;;;;;;;;;;;;
2021/07/17 02:41:53;;;;;;;2.5;1.9;;;;;;;;;;;;;
2021/07/17 02:44:18;;;;;;;2.7;2.2;;;;;;;;;;;;;
2021/07/17 02:46:43;;;;;;;2.5;2.1;;;;;;;;;;;;;
2021/07/17 02:49:08;;;;;;;4.2;2.6;;;;;;;;;;;;;
2021/07/17 02:51:34;;;;;;;2.6;2.4;;;;;;;;;;;;;
2021/07/17 02:53:59;;;;;;;3.6;2.6;;;;;;;;;;;;;
2021/07/17 02:56:26;;;;;;;3.4;3;;;;;;;;;;;;;
2021/07/17 02:58:50;;;;;;;3.2;2.7;;;;;;;;;;;;;
2021/07/17 03:01:17;;;;;;;4;2.5;;;;;;;;;;;;;
2021/07/17 03:03:42;;;;;;;2.4;1.9;;;;;;;;;;;;;
2021/07/17 03:06:09;;;;;;;2.8;2.6;;;;;;;;;;;;;
2021/07/17 03:08:34;;;;;;;3.4;2.4;;;;;;;;;;;;;
2021/07/17 03:11:01;;;;;;;3;2.7;;;;;;;;;;;;;
2021/07/17 03:13:27;;;;;;;3.2;2.9;;;;;;;;;;;;;
2021/07/17 03:15:55;;;;;;;5;2.9;;;;;;;;;;;;;
2021/07/17 03:18:21;;;;;;;4.4;3;;;;;;;;;;;;;
2021/07/17 03:20:46;;;;;;;3.1;2.7;;;;;;;;;;;;;
2021/07/17 03:23:13;;;;;;;6.8;3.1;;;;;;;;;;;;;
2021/07/17 03:25:38;;;;;;;3;2.6;;;;;;;;;;;;;
2021/07/17 03:28:04;;;;;;;3.2;2.9;;;;;;;;;;;;;
2021/07/17 03:30:29;;;;;;;2.8;2.6;;;;;;;;;;;;;
2021/07/17 03:32:56;;;;;;;2.9;2.6;;;;;;;;;;;;;
2021/07/17 03:35:21;;;;;;;3;2.6;;;;;;;;;;;;;
2021/07/17 03:37:46;;;;;;;3.7;2.6;;;;;;;;;;;;;
2021/07/17 03:40:11;;;;;;;3.3;2.8;;;;;;;;;;;;;
2021/07/17 03:42:37;;;;;;;2.5;2.3;;;;;;;;;;;;;
2021/07/17 03:45:02;;;;;;;2.8;2.6;;;;;;;;;;;;;
2021/07/17 03:47:28;;;;;;;3;2.7;;;;;;;;;;;;;
2021/07/17 03:49:53;;;;;;;3.1;2.3;;;;;;;;;;;;;
2021/07/17 03:52:19;;;;;;;3;2.6;;;;;;;;;;;;;
2021/07/17 03:54:44;;;;;;;2.9;2.6;;;;;;;;;;;;;
2021/07/17 03:57:10;;;;;;;3.4;2.3;;;;;;;;;;;;;
2021/07/17 03:59:37;;;;;;;3.1;2.4;;;;;;;;;;;;;
2021/07/17 04:02:39;;;;;;;3.6;3;;;;;;;16.73;100;940.9242;;;;
2021/07/17 04:04:57;;;;;;;3.2;2.9;;;;;;;16.78;100;941.1609;;;;
2021/07/17 04:07:23;;;;;;;3.9;2.9;;;;;;;16.79;100;941.2364;;;;
2021/07/17 04:09:48;;;;;;;3.2;2.9;;;;;;;16.87;99.57227;941.1049;;;;
2021/07/17 04:12:15;;;;;;;4.2;2.9;;;;;;;16.88;99.74805;941.0958;;;;
2021/07/17 04:14:40;;;;;;;4;2.9;;;;;;;16.86;100;941.1877;;;;
2021/07/17 04:17:08;;;;;;;3.4;3.1;;;;;;;16.88;100;941.2317;;;;
2021/07/17 04:19:33;;;;;;;5.3;2.6;;;;;;;16.89;100;941.2365;;;;
2021/07/17 04:21:59;;;;;;;3.6;2.8;;;;;;;16.68;99.31934;941.2576;;;;
2021/07/17 04:24:24;;;;;;;3;2.4;;;;;;;16.66;99.76855;941.3389;;;;
2021/07/17 04:26:49;;;;;;;4.3;3;;;;;;;16.71;100;941.2364;;;;
2021/07/17 04:29:17;;;;;;;4.3;3.1;;;;;;;16.77;100;941.3541;;;;
2021/07/17 04:31:42;;;;;;;3.4;2.8;;;;;;;16.83;100;941.4012;;;;
2021/07/17 04:34:10;;;;;;;3.6;3;;;;;;;16.85;100;941.4331;;;;
2021/07/17 04:36:35;;;;;;;3;2.8;;;;;;;16.88;99.8877;941.4369;;;;
2021/07/17 04:39:01;;;;;;;3.5;2.8;;;;;;;16.95;99.49805;941.4667;;;;
2021/07/17 04:41:26;;;;;;;3.1;2.8;;;;;;;17.01;99.3623;941.4194;;;;
2021/07/17 04:43:54;;;;;;;3.7;2.8;;;;;;;17.05;99.50684;941.3873;;;;
2021/07/17 04:46:19;;;;;;;2.7;2.5;;;;;;;17.06;99.15039;941.4065;;;;
2021/07/17 04:48:47;;;;;;;3.4;2.6;;;;;;;17.01;98.24707;941.3382;;;;
2021/07/17 04:51:12;;;;;;;3;2.8;;;;;;;16.93;97.42969;941.3528;;;;
2021/07/17 04:53:38;;;;;;;4.7;2.9;;;;;;;16.84;98.52148;941.4132;;;;
2021/07/17 04:56:03;;;;;;;6.3;3.6;;;;;;;16.72;100;941.3697;;;;
2021/07/17 04:58:30;;;;;;;4.5;3.9;;;;;;;16.81;99.44238;941.4034;;;;
2021/07/17 05:00:55;;;;;;;3.5;3.1;;;;;;;16.83;99.66895;941.4688;;;;
2021/07/17 05:03:21;;;;;;;4;3.6;;;;;;;16.92;99.72168;941.4832;;;;
2021/07/17 05:05:47;;;;;;;5.1;3.9;;;;;;;17.02;99.37402;941.4036;;;;
2021/07/17 05:08:13;;;;;;;3.9;3.6;;;;;;;17.07;99.52539;941.4537;;;;
2021/07/17 05:10:38;;;;;;;4.3;3.6;;;;;;;17.11;99.2666;941.4655;;;;
2021/07/17 05:13:07;;;;;;;5.5;3.4;;;;;;;17.14;99.06641;941.4619;;;;
2021/07/17 05:15:40;;;;;;;4.8;3.6;;;;;;;17.25;99.09082;941.3845;;;;
2021/07/17 05:18:06;;;;;;;5.2;3.9;;;;;;;17.3;99.12598;941.3574;;;;
2021/07/17 05:20:31;;;;;;;4.2;3.8;;;;;;;17.34;98.89063;941.3142;;;;
2021/07/17 05:22:58;;;;;;;4.9;3.9;;;;;;;17.39;98.39063;941.3394;;;;
2021/07/17 05:25:23;;;;;;;4.2;3.4;;;;;;;17.34;98.65625;941.3658;;;;
2021/07/17 05:27:51;;;;;;;3.6;3.2;;;;;;;17.33;98.12305;941.3047;;;;
2021/07/17 05:30:17;;;;;;;3.4;3.1;;;;;;;17.36;98.10547;941.3286;;;;
2021/07/17 05:43:34;;;;;;;3.1;2.8;;;;;;;17.53;96.36719;941.4927;;;;
2021/07/17 05:46:29;;;;;;;3.2;2.9;;;;;;;17.5;95.87402;941.473;;;;
2021/07/17 05:49:59;;;;;;;3.7;2.8;;;;;;;17.45;96.40918;941.4059;;;;
2021/07/17 05:52:23;;;;;;;5;3;;;;;;;17.44;96.74121;941.3964;;;;
2021/07/17 05:54:50;;;;;;;3;2.7;;;;;;;17.49;97.20605;941.452;;;;
2021/07/17 05:59:53;;;;;;;2.8;2.3;;;;;;;17.61;95.48145;941.4634;;;;
2021/07/17 06:02:31;;;;;;;3.5;2.5;;;;;;;17.61;96.02734;941.5206;;;;
2021/07/17 06:05:06;;;;;;;3.2;2.4;;;;;;;17.65;95.59375;941.5438;;;;
2021/07/17 06:07:26;;;;;;;3;2.7;;;;;;;17.61;95.8418;941.5262;;;;
2021/07/17 06:09:51;;;;;;;3.5;2.6;;;;;;;17.68;95.72949;941.5251;;;;
2021/07/17 06:12:18;;;;;;;3.4;2.6;;;;;;;17.75;96.13965;941.476;;;;
2021/07/17 06:14:43;;;;;;;6.5;3.1;;;;;;;17.85;96.13672;941.3396;;;;
2021/07/17 06:17:11;;;;;;;4.9;2.5;;;;;;;17.81;96.68555;941.372;;;;
2021/07/17 06:19:38;;;;;;;3.1;2.3;;;;;;;17.79;97.75;941.3522;;;;
2021/07/17 06:22:03;;;;;;;3;2.7;;;;;;;17.83;96.92188;941.3085;;;;
2021/07/17 06:24:30;;;;;;;3.1;2.3;;;;;;;17.91;95.95313;941.4097;;;;
2021/07/17 06:26:55;;;;;;;3.1;2.7;;;;;;;17.9;95.38184;941.38;;;;
2021/07/17 06:29:23;;;;;;;3.1;2.8;;;;;;;17.96;95.62598;941.4196;;;;
2021/07/17 06:31:49;;;;;;;3.1;2.7;;;;;;;18.01;95.38379;941.3309;;;;
2021/07/17 06:34:17;;;;;;;3.2;2.8;;;;;;;18.07;95.18652;941.3997;;;;
2021/07/17 06:36:42;;;;;;;3.2;2.9;;;;;;;18.16;94.16992;941.3436;;;;
2021/07/17 06:39:09;;;;;;;3.1;2.8;;;;;;;18.17;95.22949;941.3628;;;;
2021/07/17 06:41:34;;;;;;;4;2.4;;;;;;;18.21;94.77441;941.4242;;;;
2021/07/17 06:44:00;;;;;;;2.8;2.5;;;;;;;18.32;93.84668;941.4551;;;;
2021/07/17 06:46:25;;;;;;;4;2;;;;;;;18.32;92.82422;941.4075;;;;
2021/07/17 06:48:51;;;;;;;2.1;1.8;;;;;;;18.32;91.5918;941.3478;;;;
2021/07/17 06:51:17;;;;;;;2.5;2;;;;;;;18.4;92.99023;941.445;;;;
2021/07/17 06:53:43;;;;;;;2.1;1.9;;;;;;;18.52;91.48047;941.5103;;;;
2021/07/17 06:56:08;;;;;;;3.1;1.7;;;;;;;18.65;90.7168;941.4121;;;;
2021/07/17 06:58:34;;;;;;;2.6;1.9;;;;;;;18.67;91.62793;941.5053;;;;
2021/07/17 07:00:59;;;;;;;3.6;2.7;;;;;;;18.57;92.60742;941.5797;;;;
2021/07/17 07:03:27;;;;;;;5;3;;;;;;;18.61;92.0918;941.6016;;;;
2021/07/17 07:05:52;;;;;;;3.4;2.9;;;;;;;18.69;91.34082;941.6501;;;;
2021/07/17 07:08:18;;;;;;;3.7;2.9;;;;;;;18.71;90.83301;941.6588;;;;
2021/07/17 07:10:43;;;;;;;5;3.2;;;;;;;18.64;91.45801;941.7277;;;;
2021/07/17 07:13:11;;;;;;;4;3.2;;;;;;;18.65;92.27637;941.7556;;;;
2021/07/17 07:15:38;;;;;;;3.9;3.1;;;;;;;18.66;92.04492;941.7256;;;;
2021/07/17 07:18:03;;;;;;;4.8;2.8;;;;;;;18.75;91.21484;941.7185;;;;
2021/07/17 07:20:28;;;;;;;2.9;2.7;;;;;;;18.86;91.20215;941.7025;;;;
2021/07/17 07:22:54;;;;;;;3.4;2.9;;;;;;;18.86;90.6084;941.7139;;;;
2021/07/17 07:25:19;;;;;;;3.2;2.9;;;;;;;18.84;90.66309;941.7271;;;;
2021/07/17 07:27:48;;;;;;;3.3;3;;;;;;;18.76;91.74023;941.6151;;;;
2021/07/17 07:30:12;;;;;;;3.4;3.1;;;;;;;18.82;92.11426;941.6022;;;;
2021/07/17 07:32:41;;;;;;;3.5;3.2;;;;;;;18.92;90.95703;941.5402;;;;
2021/07/17 07:35:06;;;;;;;3.4;3.1;;;;;;;18.9;90.09277;941.6106;;;;
2021/07/17 07:37:34;;;;;;;3.9;3.5;;;;;;;18.56;91.41992;941.642;;;;
2021/07/17 07:39:59;;;;;;;3.9;3.6;;;;;;;18.46;91.93164;941.6895;;;;
2021/07/17 07:42:25;;;;;;;3.8;3.4;;;;;;;18.23;93.37207;941.7282;;;;
2021/07/17 07:44:50;;;;;;;4;3.6;;;;;;;18.28;94.09277;941.6791;;;;
2021/07/17 07:47:19;;;;;;;4;3.7;;;;;;;18.39;92.92969;941.6839;;;;
2021/07/17 07:49:44;;;;;;;4.5;3.8;;;;;;;18.4;92.87598;941.6425;;;;
2021/07/17 07:52:10;;;;;;;4.4;3.8;;;;;;;18.35;94.66602;941.6425;;;;
2021/07/17 07:54:35;;;;;;;4.9;4.4;;;;;;;18.41;95.09668;941.6231;;;;
2021/07/17 07:57:03;;;;;;;4.7;4.3;;;;;;;18.41;95.09668;941.5916;;;;
2021/07/17 07:59:29;;;;;;;4.4;4;;;;;;;18.46;93.95703;941.5273;;;;
2021/07/17 08:02:06;;;;;;;4.8;4.4;;;;;;;18.49;93.39063;941.4908;;;;
2021/07/17 08:04:25;;;;;;;5;4.6;;;;;;;18.46;93.98047;941.537;;;;
2021/07/17 08:06:55;;;;;;;5.2;4.8;;;;;;;18.27;93.8916;941.6091;;;;
2021/07/17 08:09:16;;;;;;;6.6;5.1;;;;;;;18.2;94.13379;941.6242;;;;
2021/07/17 08:11:48;;;;;;;5.7;5.1;;;;;;;18.07;95.20996;941.6778;;;;
2021/07/17 08:14:19;;;;;;;6.1;5.5;;;;;;;17.96;95.4541;941.7538;;;;
2021/07/17 08:16:47;;;;;;;6.7;6;;;;;;;17.87;96.13086;941.8251;;;;
2021/07/17 08:19:12;;;;;;;7.1;6.5;;;;;;;17.89;96.49512;941.8491;;;;
2021/07/17 08:21:45;;;;;;;7.1;6.4;;;;;;;17.92;97.96387;941.7955;;;;
2021/07/17 08:24:13;;;;;;;7.2;6.2;;;;;;;17.92;98.52148;941.735;;;;
2021/07/17 08:26:38;;;;;;;7.4;6.5;;;;;;;18.03;98.75293;941.7847;;;;
2021/07/17 08:29:05;;;;;;;6.9;6.2;;;;;;;18.08;98.29004;941.7952;;;;
2021/07/17 08:31:30;;;;;;;6.9;6;;;;;;;17.98;97.85938;941.8922;;;;
2021/07/17 08:33:59;;;;;;;6.6;6;;;;;;;17.87;97.98633;941.8976;;;;
2021/07/17 08:36:23;;;;;;;7.2;5.8;;;;;;;17.87;98.24219;941.9097;;;;
2021/07/17 08:38:50;;;;;;;5.5;5;;;;;;;17.95;97.35449;941.9039;;;;
2021/07/17 08:41:16;;;;;;;5.8;5.3;;;;;;;18.04;97.84082;941.8458;;;;
2021/07/17 08:43:47;;;;;;;5.8;5.3;;;;;;;18.2;97.64258;941.7775;;;;
2021/07/17 08:46:18;;;;;;;6.7;5.5;;;;;;;18.39;97.40625;941.8097;;;;
2021/07/17 08:48:48;;;;;;;5.5;5;;;;;;;18.53;97.13574;941.811;;;;
2021/07/17 08:51:10;;;;;;;5;4.5;;;;;;;18.67;94.58301;941.8127;;;;
2021/07/17 08:53:46;;;;;;;5.4;4.7;;;;;;;18.81;93.39063;941.7701;;;;
2021/07/17 08:56:08;;;;;;;6.7;5.6;;;;;;;18.73;92.84961;941.6859;;;;
2021/07/17 08:58:34;;;;;;;6.3;5.7;;;;;;;18.76;92.68262;941.7079;;;;
2021/07/17 09:01:05;;;;;;;6;5.5;;;;;;;18.79;92.66504;941.6752;;;;
2021/07/17 09:03:30;;;;;;;6.2;5.3;;;;;;;18.8;91.67969;941.6766;;;;
2021/07/17 09:05:56;;;;;;;6.6;6;;;;;;;18.75;92.19238;941.7266;;;;
2021/07/17 09:08:21;;;;;;;6.9;6.2;;;;;;;18.64;93.91211;941.7825;;;;
2021/07/17 09:10:49;;;;;;;7;6.3;;;;;;;18.59;94.7168;941.765;;;;
2021/07/17 09:13:13;;;;;;;6.9;6.2;;;;;;;18.68;94.64258;941.764;;;;
2021/07/17 09:15:42;;;;;;;13.2;12;;;;;;;18.68;95.27148;941.7286;;;;
2021/07/17 09:18:13;;;;;;;20.9;19.1;;;;;;;18.74;95.50586;941.7453;;;;
2021/07/17 09:20:45;;;;;;;9.2;8.4;;;;;;;18.83;95.05957;941.6805;;;;
2021/07/17 09:23:13;;;;;;;9;8.2;;;;;;;18.94;94.31543;941.7067;;;;
2021/07/17 09:25:38;;;;;;;10.8;8.8;;;;;;;19.02;94.43555;941.6642;;;;
2021/07/17 09:28:11;;;;;;;10.2;8.9;;;;;;;19.05;94.31543;941.58;;;;
2021/07/17 09:30:43;;;;;;;10;9;;;;;;;19.12;94.01563;941.5957;;;;
2021/07/17 09:33:12;;;;;;;13.2;11.8;;;;;;;19.18;94.15723;941.639;;;;
2021/07/17 09:35:42;;;;;;;20.4;18.1;;;;;;;19.23;93.40039;941.623;;;;
2021/07/17 09:38:07;;;;;;;11.9;10.7;;;;;;;19.08;93.60059;941.6214;;;;
2021/07/17 09:40:36;;;;;;;13.1;11.4;;;;;;;18.98;94.56934;941.5858;;;;
2021/07/17 09:43:01;;;;;;;11.4;10.2;;;;;;;18.85;94.88965;941.6373;;;;
2021/07/17 09:45:28;;;;;;;12.2;10.5;;;;;;;18.87;95.34668;941.6096;;;;
2021/07/17 09:47:53;;;;;;;8.9;8.1;;;;;;;18.75;95.94824;941.6033;;;;
2021/07/17 09:50:19;;;;;;;12.9;11.5;;;;;;;18.48;97.35645;941.6141;;;;
2021/07/17 09:52:47;;;;;;;12.3;11;;;;;;;18.51;97.9082;941.6646;;;;
2021/07/17 09:55:18;;;;;;;12.7;10.1;;;;;;;18.52;98.07324;941.6209;;;;
2021/07/17 09:57:44;;;;;;;18.4;14.4;;;;;;;18.53;97.50781;941.6359;;;;
2021/07/17 10:00:27;;;;;;;16.3;13.4;;;;;;;18.59;96.6709;941.6682;;;;
2021/07/17 10:02:53;;;;;;;13;11.2;;;;;;;18.79;95.9834;941.5839;;;;
2021/07/17 10:05:21;;;;;;;10;9;;;;;;;18.91;95.68262;941.5895;;;;
2021/07/17 10:07:55;;;;;;;10.5;9.5;;;;;;;19.14;97.54785;941.5865;;;;
2021/07/17 10:10:37;;;;;;;9.3;7.7;;;;;;;19.57;94.06543;941.6172;;;;
2021/07/17 10:13:03;;;;;;;10;8.3;;;;;;;19.7;92.60059;941.5179;;;;
2021/07/17 10:15:37;;;;;;;7.1;6.4;;;;;;;19.75;91.17773;941.4836;;;;
2021/07/17 10:18:02;;;;;;;8.3;7.5;;;;;;;19.76;90.8623;941.4925;;;;
2021/07/17 10:20:30;;;;;;;10.8;9.6;;;;;;;19.94;92.01953;941.4858;;;;
2021/07/17 10:22:59;;;;;;;12.7;11.4;;;;;;;19.89;92.65137;941.5029;;;;
2021/07/17 10:25:24;;;;;;;14;12.6;;;;;;;19.78;93.38672;941.5114;;;;
2021/07/17 10:27:53;;;;;;;14.3;13;;;;;;;19.66;93.78027;941.4364;;;;
2021/07/17 10:30:18;;;;;;;15.5;13.8;;;;;;;19.41;95.25684;941.3845;;;;
2021/07/17 10:32:43;;;;;;;14.2;12.7;;;;;;;19.69;93.88086;941.4123;;;;
2021/07/17 10:35:11;;;;;;;15.1;13.6;;;;;;;19.81;93.19434;941.3879;;;;
2021/07/17 10:37:37;;;;;;;12.4;11.2;;;;;;;19.87;90.6084;941.403;;;;
2021/07/17 10:40:02;;;;;;;14.1;12.7;;;;;;;20;90.34277;941.3922;;;;
2021/07/17 10:42:27;;;;;;;13.6;12.3;;;;;;;20;91.45117;941.3864;;;;
2021/07/17 10:44:54;;;;;;;12.4;11.1;;;;;;;19.94;90.95801;941.3928;;;;
2021/07/17 10:47:19;;;;;;;12.7;11.4;;;;;;;19.85;91.80273;941.3785;;;;
2021/07/17 10:49:44;;;;;;;12.4;11.1;;;;;;;19.96;91.02148;941.3373;;;;
2021/07/17 10:52:10;;;;;;;13.1;11.7;;;;;;;20.05;91.0752;941.301;;;;
2021/07/17 10:54:36;;;;;;;12.1;10.9;;;;;;;20.04;91.1084;941.2678;;;;
2021/07/17 10:57:02;;;;;;;14.5;12.1;;;;;;;20.01;91.11426;941.2762;;;;
2021/07/17 10:59:26;;;;;;;12.8;11.6;;;;;;;19.94;91.12305;941.2972;;;;
2021/07/17 11:01:51;;;;;;;13;11.7;;;;;;;19.98;90.76855;941.2811;;;;
2021/07/17 11:04:16;;;;;;;12.9;11.7;;;;;;;19.9;89.20117;941.3128;;;;
2021/07/17 11:06:45;;;;;;;12.5;11.3;;;;;;;19.93;89.86133;941.2942;;;;
2021/07/17 11:09:07;;;;;;;13.7;12.3;;;;;;;19.88;90.375;941.3091;;;;
2021/07/17 11:11:36;;;;;;;12.5;11.2;;;;;;;19.86;90.41602;941.3403;;;;
2021/07/17 11:14:01;;;;;;;14;12.6;;;;;;;19.86;91.80469;941.3298;;;;
2021/07/17 11:16:31;;;;;;;15.2;13;;;;;;;19.8;92.00488;941.38;;;;
2021/07/17 11:19:00;;;;;;;14.7;13.2;;;;;;;19.64;91.59766;941.3317;;;;
2021/07/17 11:21:25;;;;;;;14.2;12.8;;;;;;;19.59;92.27441;941.3469;;;;
2021/07/17 11:23:55;;;;;;;14.7;13.2;;;;;;;19.57;93.15625;941.3514;;;;
2021/07/17 11:26:27;;;;;;;14.9;13.4;;;;;;;19.59;93.62695;941.3784;;;;
2021/07/17 11:28:54;;;;;;;15.9;14.3;;;;;;;19.6;94.53809;941.3741;;;;
2021/07/17 11:31:19;;;;;;;15.1;13.3;;;;;;;19.71;94.72266;941.3836;;;;
2021/07/17 11:33:44;;;;;;;14.8;13.3;;;;;;;19.87;94.28125;941.4426;;;;
2021/07/17 11:36:11;;;;;;;14.7;13.2;;;;;;;19.85;93.6709;941.41;;;;
2021/07/17 11:38:41;;;;;;;12.3;11;;;;;;;19.79;93.42383;941.347;;;;
2021/07/17 11:41:05;;;;;;;15.5;13.6;;;;;;;19.88;93.20996;941.3415;;;;
2021/07/17 11:43:33;;;;;;;13.9;12.5;;;;;;;20.08;93.63867;941.3625;;;;
2021/07/17 11:45:58;;;;;;;14;12.2;;;;;;;20.12;92.40723;941.2653;;;;
2021/07/17 11:48:26;;;;;;;13.9;12.5;;;;;;;20.21;91.20215;941.3038;;;;
2021/07/17 11:50:52;;;;;;;13.5;12.2;;;;;;;20.36;91.06836;941.3256;;;;
2021/07/17 11:53:18;;;;;;;16;14.3;;;;;;;20.32;90.27734;941.2829;;;;
2021/07/17 11:55:43;;;;;;;15.2;13.7;;;;;;;20.38;89.41602;941.3065;;;;
2021/07/17 11:58:11;;;;;;;16.3;14.5;;;;;;;20.25;88.98047;941.3217;;;;
2021/07/17 12:00:36;;;;;;;14.6;13.1;;;;;;;20.18;89.29199;941.2972;;;;
2021/07/17 12:03:04;;;;;;;15;13.4;;;;;;;20.11;88.53223;941.2784;;;;
2021/07/17 12:05:29;;;;;;;15.8;14.1;;;;;;;20;88.03027;941.3089;;;;
2021/07/17 12:07:58;;;;;;;14.1;12.7;;;;;;;19.95;89.49121;941.2955;;;;
2021/07/17 12:10:23;;;;;;;15.2;13.6;;;;;;;19.95;89.83008;941.2437;;;;
2021/07/17 12:12:49;;;;;;;14.5;13.1;;;;;;;20.01;90.70605;941.2488;;;;
2021/07/17 12:15:22;;;;;;;15.6;14;;;;;;;20.11;90.50293;941.2729;;;;
2021/07/17 12:17:48;;;;;;;15.4;13.8;;;;;;;20.13;89.69141;941.2133;;;;
2021/07/17 12:20:19;;;;;;;17.9;16;;;;;;;20.12;89.53613;941.1627;;;;
2021/07/17 12:22:44;;;;;;;17.2;15.4;;;;;;;20.08;88.57227;941.1605;;;;
2021/07/17 12:25:16;;;;;;;14.8;13.3;;;;;;;19.9;87.31152;941.139;;;;
2021/07/17 12:27:42;;;;;;;18.7;14.3;;;;;;;19.81;87.32813;941.139;;;;
2021/07/17 12:30:07;;;;;;;19.4;16.3;;;;;;;19.58;88.97168;941.125;;;;
2021/07/17 12:32:34;;;;;;;17.4;15.6;;;;;;;19.57;91.39648;941.1574;;;;
2021/07/17 12:34:59;;;;;;;17.8;15.9;;;;;;;19.74;91.45508;941.1138;;;;
2021/07/17 12:37:28;;;;;;;17.8;16;;;;;;;19.84;93.54004;941.0884;;;;
2021/07/17 12:39:53;;;;;;;18.1;16.3;;;;;;;19.94;91.7627;941.1017;;;;
2021/07/17 12:42:18;;;;;;;19.5;17.2;;;;;;;20.01;89.95996;941.1049;;;;
2021/07/17 12:44:43;;;;;;;21.2;18.2;;;;;;;20.05;89.45508;941.0622;;;;
2021/07/17 12:49:55;;;;;;;20.7;18.2;;;;;;;19.69;91.54883;941.1027;;;;
2021/07/17 12:52:20;;;;;;;22;19.2;;;;;;;19.71;90.66699;941.1346;;;;
2021/07/17 12:54:47;;;;;;;23.1;20.6;;;;;;;19.73;91.6748;941.059;;;;
2021/07/17 12:57:12;;;;;;;23.3;20.6;;;;;;;19.85;90.65918;941.0731;;;;
2021/07/17 12:59:40;;;;;;;25.6;21.3;;;;;;;19.91;90.14746;941.1039;;;;
2021/07/17 13:02:05;;;;;;;23.9;21.3;;;;;;;19.86;90.89453;941.0881;;;;
2021/07/17 13:04:30;;;;;;;24.3;21.3;;;;;;;19.85;90.92969;941.1021;;;;
2021/07/17 13:06:58;;;;;;;24.1;20.7;;;;;;;19.87;90.97949;941.0387;;;;
2021/07/17 13:09:23;;;;;;;23.6;21.1;;;;;;;19.77;90.59766;941.0469;;;;
2021/07/17 13:11:48;;;;;;;25.8;21.9;;;;;;;19.73;91.54492;941.0712;;;;
2021/07/17 13:14:17;;;;;;;25.9;22.8;;;;;;;19.56;92.875;941.0446;;;;
2021/07/17 13:16:50;;;;;;;25.7;23;;;;;;;19.55;93.15039;941.0933;;;;
2021/07/17 13:19:15;;;;;;;25.9;22.9;;;;;;;19.46;93.69141;941.1013;;;;
2021/07/17 13:21:47;;;;;;;26.8;23.9;;;;;;;19.45;94.45801;941.0165;;;;
2021/07/17 13:24:18;;;;;;;26.6;23.1;;;;;;;19.5;94.85449;940.964;;;;
2021/07/17 13:26:45;;;;;;;27.7;22.3;;;;;;;19.44;94.86621;941.0911;;;;
2021/07/17 13:29:21;;;;;;;24.2;21.6;;;;;;;19.45;94.40039;941.0506;;;;
2021/07/17 13:31:42;;;;;;;26.1;22.3;;;;;;;19.51;95.11328;941.0541;;;;
2021/07/17 13:34:10;;;;;;;25.8;21.9;;;;;;;19.56;95.45117;941.0446;;;;
2021/07/17 13:36:35;;;;;;;23.7;21.2;;;;;;;19.58;94.88379;941.0223;;;;
2021/07/17 13:39:01;;;;;;;24.2;21.7;;;;;;;19.59;95.04883;941.0189;;;;
2021/07/17 13:41:25;;;;;;;22.8;20.5;;;;;;;19.57;95.62793;940.991;;;;
2021/07/17 13:43:51;;;;;;;24.4;21.1;;;;;;;19.63;95.30176;941.0733;;;;
2021/07/17 13:46:16;;;;;;;24;21.4;;;;;;;19.66;95.05078;941.1091;;;;
2021/07/17 13:48:45;;;;;;;26.4;23.6;;;;;;;19.64;95.17676;941.1175;;;;
2021/07/17 13:51:14;;;;;;;22.1;19.7;;;;;;;19.52;94.94141;941.1218;;;;
2021/07/17 13:53:52;;;;;;;20.3;18.1;;;;;;;19.4;93.17871;941.0449;;;;
2021/07/17 13:56:05;;;;;;;20.4;18.2;;;;;;;19.4;93.29492;941.0666;;;;
2021/07/17 13:58:31;;;;;;;19.9;17.7;;;;;;;19.41;93.17871;940.9995;;;;
2021/07/17 14:00:57;;;;;;;23.9;19.4;;;;;;;19.45;93.79395;941.0101;;;;
2021/07/17 14:03:25;;;;;;;21.6;19.3;;;;;;;19.53;95;940.9543;;;;
2021/07/17 14:05:50;;;;;;;22.1;19.3;;;;;;;19.58;94.70898;940.956;;;;
2021/07/17 14:08:18;;;;;;;22.1;19;;;;;;;19.57;94.50879;940.9224;;;;
2021/07/17 14:10:43;;;;;;;20.4;17.8;;;;;;;19.54;94.03711;940.9222;;;;
2021/07/17 14:13:13;;;;;;;21.5;18;;;;;;;19.58;93.51953;940.9221;;;;
2021/07/17 14:15:46;;;;;;;19.1;17.1;;;;;;;19.63;93.83203;940.9247;;;;
2021/07/17 14:18:22;;;;;;;20.6;18.5;;;;;;;19.53;95.58301;940.914;;;;
2021/07/17 14:20:58;;;;;;;19.8;17.7;;;;;;;19.63;94.10059;940.7808;;;;
2021/07/17 14:23:20;;;;;;;20;17.9;;;;;;;19.7;94.33789;940.8497;;;;
2021/07/17 14:25:49;;;;;;;20.7;18.5;;;;;;;19.65;93.72168;940.8111;;;;
2021/07/17 14:28:15;;;;;;;20.9;18.3;;;;;;;19.61;93.67676;940.8989;;;;
2021/07/17 14:30:44;;;;;;;20.9;18.6;;;;;;;19.55;94.45801;940.8824;;;;
2021/07/17 14:33:09;;;;;;;22.8;18.4;;;;;;;19.5;94.38867;940.9633;;;;
2021/07/17 14:35:39;;;;;;;22.2;19.5;;;;;;;19.44;94.27148;940.9797;;;;
2021/07/17 14:38:11;;;;;;;21;18.8;;;;;;;19.49;94.13965;940.9601;;;;
2021/07/17 14:40:43;;;;;;;20.8;18.2;;;;;;;19.27;94.23535;941.0426;;;;
2021/07/17 14:43:16;;;;;;;19.8;17.7;;;;;;;19.26;95.04688;940.9911;;;;
2021/07/17 14:45:41;;;;;;;18.9;16.6;;;;;;;19.31;94.98828;940.9199;;;;
2021/07/17 14:48:04;;;;;;;13.4;12.1;;;;;;;19.26;93.78906;940.8644;;;;
2021/07/17 14:50:33;;;;;;;14.4;12.8;;;;;;;19.31;95.20996;940.8794;;;;
2021/07/17 14:53:00;;;;;;;14.5;13;;;;;;;19.32;95.77051;940.9197;;;;
2021/07/17 14:55:26;;;;;;;15;13.5;;;;;;;19.15;95.76855;940.9243;;;;
2021/07/17 14:57:51;;;;;;;15.1;13.3;;;;;;;19.27;95.72656;940.9433;;;;
2021/07/17 15:00:24;;;;;;;14.8;13.2;;;;;;;19.38;96.28613;940.9587;;;;
2021/07/17 15:02:46;;;;;;;13.9;12.5;;;;;;;19.28;95.41211;940.8931;;;;
2021/07/17 15:05:21;;;;;;;12.1;10.9;;;;;;;19.15;96.21094;940.9575;;;;
2021/07/17 15:07:50;;;;;;;13.7;11;;;;;;;19.36;96.68945;940.9842;;;;
2021/07/17 15:17:10;;;;;;;12.4;11.2;;;;;;;19.29;95.26465;941.0018;;;;
2021/07/17 15:19:35;;;;;;;13.1;11.8;;;;;;;19.28;96.52051;940.9445;;;;
2021/07/17 15:22:01;;;;;;;12.6;11.3;;;;;;;19.27;96.14551;941.0055;;;;
2021/07/17 15:24:30;;;;;;;14.4;11.5;;;;;;;19.37;96.2373;940.9881;;;;
2021/07/17 15:27:04;;;;;;;11.7;10.5;;;;;;;19.28;96.73926;940.9487;;;;
2021/07/17 15:29:36;;;;;;;11.6;10.5;;;;;;;19.35;96.90723;941.0144;;;;
2021/07/17 15:31:59;;;;;;;12.4;10.5;;;;;;;19.25;97.64453;941.0058;;;;
2021/07/17 15:34:26;;;;;;;12.5;11.2;;;;;;;19.21;97.74902;940.9846;;;;
2021/07/17 15:36:51;;;;;;;13.1;11.7;;;;;;;19.27;95.59766;940.9545;;;;
2021/07/17 15:39:17;;;;;;;12.6;11.3;;;;;;;19.29;96.09082;940.9767;;;;
2021/07/17 15:41:42;;;;;;;13.1;11.7;;;;;;;19.24;95.96484;940.9584;;;;
2021/07/17 15:44:07;;;;;;;13.6;12.2;;;;;;;19;96.22461;940.905;;;;
2021/07/17 15:46:34;;;;;;;15.2;13.6;;;;;;;18.9;95.5625;940.9917;;;;
2021/07/17 15:48:59;;;;;;;16.3;14.4;;;;;;;19.01;95.83203;940.9718;;;;
2021/07/17 15:51:24;;;;;;;16.7;14.4;;;;;;;19.11;96.30762;940.9872;;;;
2021/07/17 15:53:50;;;;;;;18;14.5;;;;;;;19.19;96.66309;941.0187;;;;
2021/07/17 15:56:15;;;;;;;16.2;14.4;;;;;;;19.21;97.20313;941.0136;;;;